Time;durP1;ratioP1;P1;durP2;ratioP2;P2;SDS_P1;SDS_P2;PMS_P1;PMS_P2;Temp;Humidity;BMP_temperature;BMP_pressure;BME280_temperature;BME280_humidity;BME280_pressure;Samples;Min_cycle;Max_cycle;Signal;HPM_P1;HPM_P2
2023/08/12 00:00:54;;;;;;;8.95;4.93;;;;;;;19.48;100.00;101793.13;6280539;22;20020;-78
2023/08/12 00:03:21;;;;;;;13.65;5.25;;;;;;;19.45;100.00;101799.47;6253450;22;20016;-78
2023/08/12 00:05:48;;;;;;;8.68;5.10;;;;;;;19.45;100.00;101810.28;6281883;22;20023;-79
2023/08/12 00:08:15;;;;;;;6.50;5.00;;;;;;;19.43;100.00;101807.31;6281785;22;20454;-79
2023/08/12 00:10:41;;;;;;;11.32;5.20;;;;;;;19.43;100.00;101803.88;6254090;22;20017;-79
2023/08/12 00:13:08;;;;;;;8.00;4.53;;;;;;;19.41;100.00;101790.84;6281828;22;20568;-79
2023/08/12 00:15:35;;;;;;;7.38;5.10;;;;;;;19.41;100.00;101792.81;6253377;22;20020;-79
2023/08/12 00:18:04;;;;;;;5.60;4.70;;;;;;;19.40;100.00;101804.81;6280969;22;20016;-79
2023/08/12 00:20:30;;;;;;;8.07;5.40;;;;;;;19.38;100.00;101802.59;6253662;22;20024;-78
2023/08/12 00:22:57;;;;;;;6.25;4.93;;;;;;;19.33;100.00;101793.22;6281512;22;20012;-78
2023/08/12 00:25:23;;;;;;;9.48;5.18;;;;;;;19.32;100.00;101793.69;6280846;22;20013;-78
2023/08/12 00:27:50;;;;;;;11.07;6.22;;;;;;;19.30;100.00;101802.25;6281508;22;20469;-78
2023/08/12 00:30:17;;;;;;;6.00;5.25;;;;;;;19.28;100.00;101795.84;6254257;22;20074;-79
2023/08/12 00:32:44;;;;;;;6.70;5.22;;;;;;;19.27;100.00;101795.13;6280814;22;20359;-79
2023/08/12 00:35:10;;;;;;;6.50;5.15;;;;;;;19.25;100.00;101780.59;6254567;22;20028;-78
2023/08/12 00:37:37;;;;;;;9.50;5.75;;;;;;;19.23;100.00;101780.34;6253382;22;20436;-78
2023/08/12 00:40:05;;;;;;;10.73;5.60;;;;;;;19.22;100.00;101785.00;6254167;22;20021;-78
2023/08/12 00:42:32;;;;;;;9.23;5.35;;;;;;;19.20;100.00;101776.63;6281099;22;20401;-78
2023/08/12 00:44:59;;;;;;;7.28;5.80;;;;;;;19.19;100.00;101766.34;6281727;22;20087;-78
2023/08/12 00:47:29;;;;;;;6.72;5.35;;;;;;;19.19;100.00;101771.72;6227354;22;20044;-78
2023/08/12 00:49:57;;;;;;;8.80;5.10;;;;;;;19.16;100.00;101756.47;6281587;22;20021;-79
2023/08/12 00:52:24;;;;;;;11.43;5.50;;;;;;;19.16;100.00;101756.47;6253015;22;20020;-79
2023/08/12 00:54:51;;;;;;;7.07;5.50;;;;;;;19.14;100.00;101751.56;6281651;22;20016;-79
2023/08/12 00:57:17;;;;;;;7.50;5.60;;;;;;;19.13;100.00;101749.34;6280731;22;20043;-78
2023/08/12 00:59:44;;;;;;;13.13;6.28;;;;;;;19.13;100.00;101760.13;6254171;22;20043;-79
2023/08/12 01:02:12;;;;;;;10.07;5.88;;;;;;;19.09;100.00;101760.34;6280378;22;20051;-78
2023/08/12 01:04:40;;;;;;;9.93;6.30;;;;;;;19.06;100.00;101750.47;6253272;22;20072;-78
2023/08/12 01:07:06;;;;;;;7.80;5.82;;;;;;;19.06;100.00;101749.75;6253587;22;20393;-78
2023/08/12 01:09:33;;;;;;;7.85;5.93;;;;;;;19.03;100.00;101748.00;6253374;22;20020;-78
2023/08/12 01:12:13;;;;;;;6.93;6.20;;;;;;;19.02;100.00;101741.84;6228709;22;20044;-78
2023/08/12 01:14:53;;;;;;;9.13;6.30;;;;;;;19.00;100.00;101741.56;6253581;22;20055;-78
2023/08/12 01:17:20;;;;;;;6.88;6.25;;;;;;;18.97;100.00;101739.81;6280185;22;20446;-78
2023/08/12 01:19:47;;;;;;;9.68;6.60;;;;;;;18.96;100.00;101736.38;6254069;22;20028;-78
2023/08/12 01:22:16;;;;;;;11.65;5.97;;;;;;;18.94;100.00;101738.81;6281668;22;20017;-78
2023/08/12 01:24:44;;;;;;;8.73;6.55;;;;;;;18.93;100.00;101737.34;6253124;22;20020;-78
2023/08/12 01:27:12;;;;;;;6.95;6.30;;;;;;;18.89;100.00;101736.06;6281015;22;20012;-78
2023/08/12 01:29:46;;;;;;;7.50;6.80;;;;;;;18.87;100.00;101728.44;6280212;22;20495;-78
2023/08/12 01:32:42;;;;;;;11.18;7.15;;;;;;;18.86;100.00;101732.34;6280344;22;20204;-78
2023/08/12 01:35:17;;;;;;;13.63;6.85;;;;;;;18.85;100.00;101728.16;6275063;22;20020;-78
2023/08/12 01:37:46;;;;;;;9.65;7.13;;;;;;;18.83;100.00;101722.50;6253665;22;20023;-79
2023/08/12 01:40:15;;;;;;;11.45;8.05;;;;;;;18.83;100.00;101719.06;6280993;22;20091;-78
2023/08/12 01:42:42;;;;;;;8.23;7.28;;;;;;;18.84;100.00;101709.75;6280179;22;20420;-78
2023/08/12 01:45:10;;;;;;;10.73;7.75;;;;;;;18.85;100.00;101703.13;6280609;22;20016;-78
2023/08/12 01:47:37;;;;;;;10.75;8.10;;;;;;;18.84;100.00;101707.78;6279939;22;20297;-79
2023/08/12 01:50:06;;;;;;;9.32;7.88;;;;;;;18.85;100.00;101716.63;6255059;22;20036;-78
2023/08/12 01:52:32;;;;;;;21.13;8.43;;;;;;;18.84;100.00;101697.00;6252676;22;20054;-79
2023/08/12 01:54:59;;;;;;;13.88;8.32;;;;;;;18.84;100.00;101698.97;6254455;22;20016;-78
2023/08/12 01:57:26;;;;;;;14.27;8.00;;;;;;;18.83;100.00;101694.78;6253975;22;20016;-78
2023/08/12 01:59:52;;;;;;;11.73;8.50;;;;;;;18.83;100.00;101694.78;6253166;22;20020;-78
2023/08/12 02:02:19;;;;;;;9.02;7.85;;;;;;;18.81;100.00;101681.03;6253400;22;20012;-78
2023/08/12 02:04:46;;;;;;;11.05;8.18;;;;;;;18.83;100.00;101687.44;6281384;22;20013;-78
2023/08/12 02:07:12;;;;;;;14.25;7.70;;;;;;;18.82;100.00;101690.59;6281168;22;20012;-77
2023/08/12 02:09:39;;;;;;;14.15;8.85;;;;;;;18.82;100.00;101685.19;6280456;22;20027;-77
2023/08/12 02:12:06;;;;;;;12.57;9.23;;;;;;;18.80;100.00;101685.66;6281247;22;20012;-77
2023/08/12 02:14:33;;;;;;;12.27;8.25;;;;;;;18.80;100.00;101679.53;6280176;22;20032;-77
2023/08/12 02:17:00;;;;;;;11.63;8.82;;;;;;;18.81;100.00;101681.75;6253808;22;20047;-76
2023/08/12 02:19:26;;;;;;;14.45;8.85;;;;;;;18.81;100.00;101679.06;6253047;22;20016;-77
2023/08/12 02:21:53;;;;;;;10.55;8.88;;;;;;;18.82;100.00;101677.84;6228529;22;20021;-77
2023/08/12 02:24:19;;;;;;;9.60;8.50;;;;;;;18.83;100.00;101671.25;6253090;22;20039;-77
2023/08/12 02:26:46;;;;;;;14.00;8.45;;;;;;;18.83;100.00;101679.34;6253731;22;20016;-78
2023/08/12 02:29:13;;;;;;;12.65;8.43;;;;;;;18.81;100.00;101676.38;6280759;22;20083;-77
2023/08/12 02:31:39;;;;;;;15.65;8.80;;;;;;;18.81;100.00;101668.28;6253378;22;20074;-77
2023/08/12 02:34:06;;;;;;;14.30;8.93;;;;;;;18.81;100.00;101665.56;6253742;22;20024;-78
2023/08/12 02:36:34;;;;;;;15.15;8.57;;;;;;;18.80;100.00;101664.09;6253120;22;20023;-77
2023/08/12 02:39:00;;;;;;;10.95;8.90;;;;;;;18.80;100.00;101657.97;6281330;22;20066;-78
2023/08/12 02:41:29;;;;;;;10.40;8.52;;;;;;;18.80;100.00;101660.66;6252908;22;20395;-77
2023/08/12 02:43:56;;;;;;;11.73;8.52;;;;;;;18.81;100.00;101659.44;6280927;22;20023;-77
2023/08/12 02:46:24;;;;;;;13.23;8.88;;;;;;;18.79;100.00;101651.84;6252674;22;20396;-77
2023/08/12 02:48:51;;;;;;;9.45;8.23;;;;;;;18.80;100.00;101656.00;6228696;22;20024;-77
2023/08/12 02:51:18;;;;;;;13.23;8.70;;;;;;;18.81;100.00;101652.09;6253139;22;20016;-78
2023/08/12 02:53:45;;;;;;;10.93;7.70;;;;;;;18.80;100.00;101652.56;6280907;22;20054;-78
2023/08/12 02:56:11;;;;;;;16.13;9.18;;;;;;;18.81;100.00;101657.47;6228644;22;20082;-78
2023/08/12 02:58:38;;;;;;;10.55;8.80;;;;;;;18.79;100.00;101646.47;6252201;22;20454;-78
2023/08/12 03:01:05;;;;;;;10.82;9.55;;;;;;;18.79;100.00;101648.41;6281286;22;20438;-78
2023/08/12 03:03:32;;;;;;;15.07;9.60;;;;;;;18.78;100.00;101636.13;6227687;22;20016;-78
2023/08/12 03:05:58;;;;;;;12.85;9.38;;;;;;;18.77;100.00;101635.41;6228145;22;20016;-78
2023/08/12 03:08:26;;;;;;;13.00;9.65;;;;;;;18.78;100.00;101628.78;6252342;22;20021;-78
2023/08/12 03:11:00;;;;;;;15.07;9.63;;;;;;;18.80;100.00;101633.69;6253442;22;20040;-78
2023/08/12 03:13:28;;;;;;;15.57;9.60;;;;;;;18.78;100.00;101631.50;6252071;22;20024;-78
2023/08/12 03:15:55;;;;;;;14.93;9.68;;;;;;;18.79;100.00;101624.13;6281113;22;20012;-78
2023/08/12 03:18:22;;;;;;;15.48;10.73;;;;;;;18.80;100.00;101620.19;6252640;22;20020;-77
2023/08/12 03:20:49;;;;;;;19.30;10.27;;;;;;;18.81;100.00;101627.06;6252935;22;20043;-78
2023/08/12 03:23:17;;;;;;;13.80;9.55;;;;;;;18.82;100.00;101623.91;6252988;22;20020;-78
2023/08/12 03:25:46;;;;;;;15.75;10.55;;;;;;;18.82;100.00;101615.81;6253443;22;20016;-78
2023/08/12 03:28:12;;;;;;;13.32;10.63;;;;;;;18.84;100.00;101623.44;6280303;22;20048;-78
2023/08/12 03:30:40;;;;;;;17.27;10.98;;;;;;;18.84;100.00;101618.78;6280213;22;20090;-77
2023/08/12 03:33:07;;;;;;;16.23;10.25;;;;;;;18.86;100.00;101621.75;6280350;22;20012;-78
2023/08/12 03:35:34;;;;;;;18.65;10.88;;;;;;;18.86;100.00;101612.91;6252182;22;20030;-78
2023/08/12 03:38:00;;;;;;;18.13;10.93;;;;;;;18.87;100.00;101611.69;6254185;22;20024;-79
2023/08/12 03:40:27;;;;;;;18.88;10.77;;;;;;;18.88;100.00;101603.13;6253285;22;20020;-78
2023/08/12 03:42:55;;;;;;;15.52;10.82;;;;;;;18.89;100.00;101601.16;6228553;22;20099;-78
2023/08/12 03:45:24;;;;;;;17.85;11.15;;;;;;;18.90;100.00;101598.00;6252774;22;20027;-78
2023/08/12 03:47:50;;;;;;;17.63;11.27;;;;;;;18.92;100.00;101600.22;6254007;22;20024;-78
2023/08/12 03:50:17;;;;;;;18.73;11.27;;;;;;;18.93;100.00;101596.31;6253620;22;20050;-78
2023/08/12 03:52:44;;;;;;;13.40;10.32;;;;;;;18.93;100.00;101591.66;6253677;22;20023;-78
2023/08/12 03:55:10;;;;;;;17.50;11.10;;;;;;;18.95;100.00;101585.78;6254124;22;20020;-78
2023/08/12 03:57:37;;;;;;;14.55;10.57;;;;;;;18.96;100.00;101585.28;6280010;22;20016;-78
2023/08/12 04:00:07;;;;;;;16.23;11.43;;;;;;;18.97;100.00;101583.34;6253462;22;20017;-78
2023/08/12 04:02:40;;;;;;;17.23;10.82;;;;;;;18.97;100.00;101578.69;6255029;22;20024;-79
2023/08/12 04:05:07;;;;;;;17.17;11.02;;;;;;;18.96;100.00;101579.91;6254366;22;20125;-78
2023/08/12 04:07:33;;;;;;;15.18;11.20;;;;;;;18.98;100.00;101574.78;6253517;22;20024;-78
2023/08/12 04:10:00;;;;;;;12.05;10.52;;;;;;;18.98;100.00;101577.47;6281327;22;20113;-78
2023/08/12 04:12:27;;;;;;;13.20;10.50;;;;;;;18.98;100.00;101566.69;6281142;22;20016;-78
2023/08/12 04:14:54;;;;;;;12.45;11.23;;;;;;;19.01;100.00;101558.84;6281209;22;20099;-78
2023/08/12 04:17:20;;;;;;;17.05;11.57;;;;;;;19.00;100.00;101552.72;6280588;22;20094;-78
2023/08/12 04:19:47;;;;;;;17.52;12.45;;;;;;;19.01;100.00;101566.94;6253982;22;20040;-78
2023/08/12 04:22:14;;;;;;;14.55;11.82;;;;;;;19.01;100.00;101564.25;6253811;22;20296;-79
2023/08/12 04:24:40;;;;;;;18.42;11.73;;;;;;;19.02;100.00;101558.38;6252465;22;20020;-80
2023/08/12 04:27:07;;;;;;;20.10;12.18;;;;;;;19.04;100.00;101564.03;6254086;22;20024;-79
2023/08/12 04:29:35;;;;;;;21.13;12.40;;;;;;;19.07;100.00;101568.47;6253420;22;20450;-78
2023/08/12 04:32:02;;;;;;;19.58;12.60;;;;;;;19.09;100.00;101566.03;6253780;22;20020;-78
2023/08/12 04:34:29;;;;;;;18.77;12.75;;;;;;;19.11;100.00;101560.91;6253282;22;20445;-79
2023/08/12 04:36:56;;;;;;;20.98;12.90;;;;;;;19.13;100.00;101558.47;6281537;22;20024;-78
2023/08/12 04:39:22;;;;;;;23.48;13.80;;;;;;;19.15;100.00;101550.63;6253185;22;20083;-78
2023/08/12 04:41:50;;;;;;;16.45;12.80;;;;;;;19.18;100.00;101554.34;6254423;22;20032;-78
2023/08/12 04:44:16;;;;;;;19.38;13.73;;;;;;;19.19;100.00;101534.94;6228900;22;20560;-78
2023/08/12 04:46:43;;;;;;;18.13;13.93;;;;;;;19.24;100.00;101523.44;6254411;22;20020;-78
2023/08/12 04:49:10;;;;;;;18.73;13.50;;;;;;;19.26;100.00;101520.25;6253966;22;20016;-78
2023/08/12 04:51:37;;;;;;;20.23;13.52;;;;;;;19.28;100.00;101523.22;6253224;22;20295;-78
2023/08/12 04:54:04;;;;;;;21.23;13.55;;;;;;;19.29;100.00;101514.63;6227813;22;20032;-79
2023/08/12 04:56:31;;;;;;;21.15;13.32;;;;;;;19.31;100.00;101519.56;6228266;22;20016;-80
2023/08/12 04:58:59;;;;;;;22.77;13.38;;;;;;;19.31;100.00;101516.88;6254153;22;20012;-77
2023/08/12 05:01:25;;;;;;;17.23;12.20;;;;;;;19.31;100.00;101506.06;6253512;22;20012;-79
2023/08/12 05:03:52;;;;;;;18.50;12.50;;;;;;;19.30;100.00;101512.69;6253962;22;20079;-79
2023/08/12 05:06:19;;;;;;;15.63;11.90;;;;;;;19.30;100.00;101512.69;6280879;22;20103;-79
2023/08/12 05:08:45;;;;;;;19.95;11.70;;;;;;;19.31;100.00;101503.38;6281332;22;20017;-79
2023/08/12 05:11:12;;;;;;;19.30;11.85;;;;;;;19.31;100.00;101495.25;6253884;22;20103;-79
2023/08/12 05:13:39;;;;;;;18.63;11.85;;;;;;;19.31;100.00;101501.41;6252933;22;20508;-79
2023/08/12 05:16:05;;;;;;;14.63;11.35;;;;;;;19.30;100.00;101505.31;6282066;22;20425;-78
2023/08/12 05:18:32;;;;;;;22.67;12.07;;;;;;;19.31;100.00;101511.47;6253080;22;20016;-79
2023/08/12 05:20:59;;;;;;;18.83;11.43;;;;;;;19.32;100.00;101515.63;6254249;22;20095;-79
2023/08/12 05:23:26;;;;;;;13.25;10.85;;;;;;;19.33;100.00;101515.16;6253082;22;20485;-78
2023/08/12 05:25:53;;;;;;;17.48;11.15;;;;;;;19.33;100.00;101514.41;6253988;22;20019;-78
2023/08/12 05:28:21;;;;;;;17.15;10.73;;;;;;;19.36;100.00;101515.41;6280585;22;20004;-78
2023/08/12 05:30:48;;;;;;;17.88;10.18;;;;;;;19.37;100.00;101511.50;6281333;22;20023;-78
2023/08/12 05:33:14;;;;;;;11.73;10.52;;;;;;;19.39;100.00;101517.16;6228200;22;20020;-77
2023/08/12 05:35:41;;;;;;;20.35;10.60;;;;;;;19.41;100.00;101509.31;6280759;22;20074;-78
2023/08/12 05:38:08;;;;;;;20.45;12.02;;;;;;;19.42;100.00;101513.50;6280876;22;20469;-77
2023/08/12 05:40:34;;;;;;;21.23;11.60;;;;;;;19.42;100.00;101522.34;6253240;22;20091;-78
2023/08/12 05:43:01;;;;;;;13.70;10.88;;;;;;;19.42;100.00;101513.50;6252167;22;20020;-77
2023/08/12 05:45:27;;;;;;;15.98;11.30;;;;;;;19.41;100.00;101518.16;6280042;22;20012;-78
2023/08/12 05:47:54;;;;;;;17.63;11.75;;;;;;;19.41;100.00;101512.75;6280987;22;20017;-80
2023/08/12 05:50:20;;;;;;;18.30;11.82;;;;;;;19.39;100.00;101509.81;6280630;22;20016;-77
2023/08/12 05:52:47;;;;;;;14.95;11.40;;;;;;;19.38;100.00;101513.72;6280329;22;20018;-77
2023/08/12 05:55:14;;;;;;;13.68;11.60;;;;;;;19.39;100.00;101514.47;6253954;22;20432;-77
2023/08/12 05:57:40;;;;;;;23.05;11.80;;;;;;;19.39;100.00;101507.09;6280537;22;20391;-78
2023/08/12 06:00:07;;;;;;;16.85;10.95;;;;;;;19.41;100.00;101509.31;6280648;22;20017;-79
2023/08/12 06:02:37;;;;;;;16.42;10.82;;;;;;;19.40;100.00;101503.19;6280206;22;20020;-78
2023/08/12 06:05:04;;;;;;;12.75;11.32;;;;;;;19.39;100.00;101509.81;6228616;22;20425;-78
2023/08/12 06:07:31;;;;;;;13.55;11.40;;;;;;;19.37;100.00;101512.25;6280138;22;20012;-79
2023/08/12 06:09:57;;;;;;;13.88;10.95;;;;;;;19.36;100.00;101508.06;6282027;22;20016;-87
2023/08/12 06:12:24;;;;;;;13.25;10.90;;;;;;;19.35;100.00;101509.28;6280304;22;20019;-81
2023/08/12 06:14:51;;;;;;;11.68;10.48;;;;;;;19.36;100.00;101512.72;6253385;22;20474;-81
2023/08/12 06:17:17;;;;;;;14.85;10.80;;;;;;;19.36;100.00;101504.63;6280515;22;20019;-79
2023/08/12 06:19:44;;;;;;;16.88;10.95;;;;;;;19.35;100.00;101506.59;6280938;22;20019;-81
2023/08/12 06:22:10;;;;;;;15.45;10.82;;;;;;;19.36;100.00;101508.06;6253478;22;20461;-78
2023/08/12 06:24:37;;;;;;;11.60;9.98;;;;;;;19.34;100.00;101510.50;6280341;22;20016;-80
2023/08/12 06:27:05;;;;;;;15.00;9.70;;;;;;;19.37;100.00;101511.50;6228506;22;20087;-79
2023/08/12 06:29:31;;;;;;;10.30;9.30;;;;;;;19.38;100.00;101510.28;6253433;22;20012;-79
2023/08/12 06:31:58;;;;;;;9.50;8.57;;;;;;;19.38;100.00;101518.38;6253640;22;20438;-79
2023/08/12 06:34:24;;;;;;;9.55;8.65;;;;;;;19.36;100.00;101516.16;6252956;22;20024;-79
2023/08/12 06:36:51;;;;;;;10.05;8.98;;;;;;;19.34;100.00;101515.91;6280524;22;20454;-79
2023/08/12 06:39:17;;;;;;;11.00;8.88;;;;;;;19.33;100.00;101517.88;6280877;22;20458;-78
2023/08/12 06:41:44;;;;;;;10.02;8.18;;;;;;;19.33;100.00;101514.41;6280719;22;20409;-79
2023/08/12 06:44:11;;;;;;;7.80;7.00;;;;;;;19.28;100.00;101517.81;6253956;22;20458;-79
2023/08/12 06:46:37;;;;;;;8.82;7.47;;;;;;;19.26;100.00;101520.25;6280147;22;20520;-82
2023/08/12 06:49:04;;;;;;;9.90;6.85;;;;;;;19.27;100.00;101500.88;6228023;22;20497;-78
2023/08/12 06:51:31;;;;;;;6.80;6.10;;;;;;;19.29;100.00;101509.25;6279673;22;20012;-79
2023/08/12 06:53:57;;;;;;;6.28;5.78;;;;;;;19.29;100.00;101495.00;6253427;22;20027;-77
2023/08/12 06:56:24;;;;;;;7.43;6.18;;;;;;;19.29;100.00;101492.31;6280099;22;20331;-77
2023/08/12 06:58:50;;;;;;;6.20;5.60;;;;;;;19.31;100.00;101493.31;6280777;22;20048;-77
2023/08/12 07:01:17;;;;;;;5.35;4.95;;;;;;;19.31;100.00;101495.25;6280731;22;20012;-76
2023/08/12 07:03:44;;;;;;;5.75;5.22;;;;;;;19.31;100.00;101493.31;6253312;22;20020;-77
2023/08/12 07:06:10;;;;;;;5.53;5.13;;;;;;;19.31;100.00;101492.56;6280330;22;20019;-77
2023/08/12 07:08:37;;;;;;;5.57;5.15;;;;;;;19.31;100.00;101489.88;6280164;22;20844;-77
2023/08/12 07:11:04;;;;;;;6.03;5.53;;;;;;;19.31;100.00;101495.25;6280924;22;20346;-78
2023/08/12 07:13:31;;;;;;;5.22;4.82;;;;;;;19.33;100.00;101487.44;6279706;22;20028;-78
2023/08/12 07:15:58;;;;;;;4.75;4.25;;;;;;;19.30;100.00;101489.13;6280351;22;20012;-77
2023/08/12 07:18:24;;;;;;;4.20;3.92;;;;;;;19.29;100.00;101484.22;6251731;22;20016;-79
2023/08/12 07:20:51;;;;;;;4.28;4.05;;;;;;;19.30;100.00;101485.69;6280539;22;20020;-78
2023/08/12 07:23:17;;;;;;;4.18;3.88;;;;;;;19.31;100.00;101473.66;6253165;22;20020;-78
2023/08/12 07:25:46;;;;;;;3.95;3.53;;;;;;;19.31;100.00;101470.97;6280651;22;20096;-78
2023/08/12 07:28:13;;;;;;;4.90;4.00;;;;;;;19.32;100.00;101475.16;6280579;22;20008;-77
2023/08/12 07:30:39;;;;;;;3.15;3.05;;;;;;;19.32;100.00;101481.28;6279755;22;20095;-77
2023/08/12 07:33:07;;;;;;;4.05;3.75;;;;;;;19.31;100.00;101473.66;6279845;22;20020;-77
2023/08/12 07:35:36;;;;;;;4.47;4.07;;;;;;;19.31;100.00;101468.28;6279725;22;20026;-78
2023/08/12 07:38:03;;;;;;;4.40;4.10;;;;;;;19.32;100.00;101465.09;6280596;22;20144;-78
2023/08/12 07:40:29;;;;;;;4.03;3.72;;;;;;;19.37;100.00;101460.22;6279443;22;20016;-77
2023/08/12 07:42:56;;;;;;;4.22;3.70;;;;;;;19.42;100.00;101456.81;6280201;22;20047;-77
2023/08/12 07:45:23;;;;;;;3.83;3.63;;;;;;;19.42;100.00;101456.81;6279510;22;20155;-78
2023/08/12 07:47:50;;;;;;;3.72;3.53;;;;;;;19.42;100.00;101457.53;6252304;22;20103;-77
2023/08/12 07:50:17;;;;;;;4.18;3.88;;;;;;;19.41;100.00;101458.75;6280137;22;20012;-80
2023/08/12 07:52:44;;;;;;;3.55;3.35;;;;;;;19.42;100.00;101457.53;6279780;22;20454;-83
2023/08/12 07:55:12;;;;;;;3.92;3.45;;;;;;;19.43;100.00;101460.97;6280256;22;20016;-84
2023/08/12 07:57:38;;;;;;;6.88;3.22;;;;;;;19.43;100.00;101456.31;6279812;22;20020;-79
2023/08/12 08:00:07;;;;;;;3.85;3.55;;;;;;;19.44;100.00;101457.78;6280449;22;20092;-80
2023/08/12 08:02:35;;;;;;;3.60;3.30;;;;;;;19.44;100.00;101465.16;6277223;22;20026;-80
2023/08/12 08:05:02;;;;;;;3.72;3.42;;;;;;;19.40;100.00;101462.69;6252240;22;20450;-80
2023/08/12 08:07:30;;;;;;;3.40;3.20;;;;;;;19.41;100.00;101466.88;6251592;22;20044;-79
2023/08/12 08:09:56;;;;;;;3.83;3.53;;;;;;;19.38;100.00;101465.13;6279648;22;20012;-80
2023/08/12 08:12:23;;;;;;;5.82;3.58;;;;;;;19.38;100.00;101464.38;6278442;22;20016;-81
2023/08/12 08:14:50;;;;;;;3.20;3.00;;;;;;;19.41;100.00;101458.75;6278085;22;20016;-79
2023/08/12 08:17:16;;;;;;;2.80;2.60;;;;;;;19.49;100.00;101469.84;6279144;22;20012;-76
2023/08/12 08:19:43;;;;;;;3.10;2.90;;;;;;;19.48;100.00;101458.31;6280010;22;20024;-77
2023/08/12 08:22:10;;;;;;;4.60;2.78;;;;;;;19.50;100.00;101469.38;6280161;22;20027;-76
2023/08/12 08:24:38;;;;;;;2.50;2.40;;;;;;;19.54;100.00;101461.06;6280718;22;20016;-77
2023/08/12 08:27:04;;;;;;;2.80;2.70;;;;;;;19.59;100.00;101463.78;6281602;22;20012;-76
2023/08/12 08:29:31;;;;;;;3.08;2.38;;;;;;;19.65;100.00;101455.69;6253506;22;20082;-76
2023/08/12 08:31:58;;;;;;;2.67;2.28;;;;;;;19.68;100.00;101464.78;6280645;22;20036;-76
2023/08/12 08:34:24;;;;;;;2.50;2.40;;;;;;;19.72;100.00;101457.94;6280731;22;20020;-76
2023/08/12 08:36:51;;;;;;;2.72;2.60;;;;;;;19.78;100.00;101471.47;6281794;22;20075;-77
2023/08/12 08:39:18;;;;;;;2.28;2.10;;;;;;;19.80;100.00;101469.03;6253517;22;20020;-78
2023/08/12 08:41:47;;;;;;;2.50;2.30;;;;;;;19.84;100.00;101475.66;6281647;22;20020;-82
2023/08/12 08:44:15;;;;;;;2.40;2.30;;;;;;;19.85;100.00;101477.16;6281767;22;20019;-78
2023/08/12 08:46:43;;;;;;;1.92;1.83;;;;;;;19.87;100.00;101468.56;6253268;22;20039;-77
2023/08/12 08:49:11;;;;;;;1.60;1.50;;;;;;;19.85;100.00;101471.75;6281284;22;20016;-77
2023/08/12 08:51:38;;;;;;;1.58;1.55;;;;;;;19.88;100.00;101472.75;6280878;22;20163;-77
2023/08/12 08:54:05;;;;;;;1.63;1.52;;;;;;;19.90;100.00;101481.09;6228375;22;20432;-77
2023/08/12 08:56:35;;;;;;;3.30;1.20;;;;;;;19.86;100.00;101484.03;6280742;22;20012;-77
2023/08/12 08:59:14;;;;;;;1.05;1.00;;;;;;;19.80;100.00;101487.94;6281247;22;20090;-77
2023/08/12 09:01:41;;;;;;;1.30;1.20;;;;;;;19.77;100.00;101483.50;6279753;22;20016;-77
2023/08/12 09:04:08;;;;;;;1.20;1.20;;;;;;;19.63;100.00;101502.09;6281270;22;20461;-77
2023/08/12 09:06:38;;;;;;;1.63;1.08;;;;;;;19.40;100.00;101511.28;6253843;22;20018;-77
2023/08/12 09:09:10;;;;;;;1.20;0.88;;;;;;;19.21;100.00;101512.88;6254286;22;20092;-77
2023/08/12 09:11:38;;;;;;;1.98;1.05;;;;;;;19.06;100.00;101518.41;6280309;22;20016;-76
2023/08/12 09:14:06;;;;;;;1.13;0.88;;;;;;;18.92;100.00;101520.03;6281194;22;20012;-76
2023/08/12 09:16:32;;;;;;;1.67;1.17;;;;;;;18.85;100.00;101525.09;6279989;22;20497;-77
2023/08/12 09:18:59;;;;;;;3.88;1.20;;;;;;;18.74;100.00;101525.78;6281136;22;20047;-77
2023/08/12 09:21:26;;;;;;;1.35;1.20;;;;;;;18.74;100.00;101520.38;6253293;22;20098;-76
2023/08/12 09:23:54;;;;;;;2.17;1.20;;;;;;;18.73;100.00;101510.81;6253994;22;20509;-76
2023/08/12 09:26:21;;;;;;;1.23;1.10;;;;;;;18.85;100.00;101493.47;6280319;22;20012;-76
2023/08/12 09:28:48;;;;;;;1.52;1.10;;;;;;;19.02;100.00;101499.00;6254199;22;20087;-76
2023/08/12 09:31:25;;;;;;;1.75;1.42;;;;;;;19.07;100.00;101506.41;6280536;22;20016;-76
2023/08/12 09:33:52;;;;;;;4.40;1.20;;;;;;;18.96;100.00;101515.16;6253677;22;20016;-76
2023/08/12 09:36:21;;;;;;;2.75;1.63;;;;;;;18.87;100.00;101517.28;6280083;22;20023;-77
2023/08/12 09:38:47;;;;;;;2.13;1.20;;;;;;;18.82;100.00;101526.06;6281097;22;20020;-77
2023/08/12 09:41:14;;;;;;;3.40;1.40;;;;;;;18.79;100.00;101532.44;6281086;22;20421;-76
2023/08/12 09:43:45;;;;;;;2.67;1.35;;;;;;;18.87;100.00;101533.47;6279774;22;20020;-76
2023/08/12 09:46:15;;;;;;;4.68;1.73;;;;;;;18.85;100.00;101539.34;6280927;22;20012;-80
2023/08/12 09:48:43;;;;;;;3.58;1.50;;;;;;;18.89;100.00;101549.91;6280313;22;20063;-78
2023/08/12 09:51:10;;;;;;;4.57;1.52;;;;;;;18.96;100.00;101536.72;6280524;22;20020;-77
2023/08/12 09:53:37;;;;;;;1.77;1.30;;;;;;;19.02;100.00;101544.13;6279943;22;20501;-75
2023/08/12 09:56:07;;;;;;;6.32;2.20;;;;;;;19.12;100.00;101556.25;6281106;22;20334;-75
2023/08/12 09:58:36;;;;;;;6.07;1.55;;;;;;;19.27;100.00;101557.56;6279989;22;20394;-77
2023/08/12 10:01:10;;;;;;;2.20;1.58;;;;;;;19.37;100.00;101563.53;6253543;22;20024;-76
2023/08/12 10:03:37;;;;;;;1.75;1.63;;;;;;;19.35;100.00;101557.88;6227650;22;20387;-77
2023/08/12 10:06:05;;;;;;;3.67;1.48;;;;;;;19.25;100.00;101565.41;6280893;22;20078;-77
2023/08/12 10:08:33;;;;;;;3.53;1.58;;;;;;;19.41;100.00;101568.72;6227248;22;20048;-76
2023/08/12 10:11:00;;;;;;;4.22;1.92;;;;;;;19.48;100.00;101558.22;6228266;22;20032;-76
2023/08/12 10:13:40;;;;;;;3.88;1.98;;;;;;;19.69;100.00;101558.84;6279801;22;20012;-76
2023/08/12 10:16:09;;;;;;;6.15;1.92;;;;;;;19.96;99.83;101547.44;6280876;22;20020;-76
2023/08/12 10:18:38;;;;;;;4.38;1.80;;;;;;;20.19;100.00;101534.75;6279820;22;20020;-75
2023/08/12 10:21:08;;;;;;;3.78;1.70;;;;;;;20.42;93.34;101540.22;6280776;22;20446;-75
2023/08/12 10:23:35;;;;;;;3.85;1.60;;;;;;;20.64;93.58;101548.38;6253092;22;20046;-76
2023/08/12 10:26:05;;;;;;;3.03;1.50;;;;;;;20.89;90.05;101549.38;6228205;22;20082;-76
2023/08/12 10:28:36;;;;;;;3.38;1.30;;;;;;;21.22;92.88;101556.75;6252350;22;20091;-76
2023/08/12 10:31:05;;;;;;;1.40;1.30;;;;;;;21.75;93.57;101554.94;6281353;22;20410;-76
2023/08/12 10:33:39;;;;;;;5.80;1.40;;;;;;;21.92;86.91;101555.63;6280119;22;20017;-75
2023/08/12 10:36:07;;;;;;;3.55;1.90;;;;;;;21.87;87.11;101559.09;6280667;22;20446;-76
2023/08/12 10:38:34;;;;;;;2.65;1.50;;;;;;;21.98;80.94;101542.78;6280412;22;20083;-76
2023/08/12 10:41:21;;;;;;;2.88;1.83;;;;;;;22.15;82.72;101548.16;6281039;22;20016;-75
2023/08/12 10:43:58;;;;;;;4.18;1.85;;;;;;;21.84;82.97;101555.41;6252346;22;20434;-76
2023/08/12 10:46:35;;;;;;;5.55;1.80;;;;;;;21.57;83.64;101556.22;6279794;22;20017;-76
2023/08/12 10:49:08;;;;;;;4.28;2.03;;;;;;;21.48;83.71;101556.50;6280711;22;20012;-76
2023/08/12 10:51:44;;;;;;;5.18;1.90;;;;;;;21.40;84.83;101566.34;6279822;22;20155;-76
2023/08/12 10:54:22;;;;;;;3.65;1.63;;;;;;;21.81;86.80;101561.06;6280856;22;20454;-76
2023/08/12 10:57:05;;;;;;;5.53;2.08;;;;;;;22.23;85.54;101560.69;6253137;22;20056;-76
2023/08/12 10:59:47;;;;;;;4.22;1.83;;;;;;;22.34;82.99;101545.59;6227374;22;20016;-76
2023/08/12 11:02:27;;;;;;;2.38;1.80;;;;;;;22.39;82.77;101558.38;6280861;22;20017;-76
2023/08/12 11:05:02;;;;;;;3.28;1.73;;;;;;;22.18;81.36;101552.56;6281024;22;20150;-76
2023/08/12 11:07:34;;;;;;;6.70;2.10;;;;;;;22.41;81.77;101555.88;6280003;22;20023;-76
2023/08/12 11:10:13;;;;;;;3.95;2.03;;;;;;;22.81;82.23;101555.13;6280950;22;20016;-77
2023/08/12 11:12:41;;;;;;;4.78;1.90;;;;;;;23.02;77.85;101552.03;6279609;22;20016;-76
2023/08/12 11:15:09;;;;;;;1.98;1.70;;;;;;;22.90;74.74;101551.38;6280802;22;20020;-76